Home > Products > Valid Products > TAF

000
FTUS44 KLCH 312320
TAFLFT
TAF
KLFT 312320Z 0100/0124 21008KT P6SM SCT250
     FM010500 VRB03KT 3SM BR SCT005
     FM010800 00000KT 1/4SM FG VV001
      TEMPO 0113/0115 3SM BR BKN005
     FM011500 20006KT P6SM SCT025 BKN035
     FM011900 20010G16KT P6SM BKN040=



000
FTUS44 KLCH 312320
TAFBPT
TAF
KBPT 312320Z 0100/0124 19008KT P6SM SCT250
     FM010500 VRB03KT 3SM BR SCT005
     FM010800 00000KT 1/4SM FG VV001
      TEMPO 0113/0115 3SM BR BKN005
     FM011500 16008KT P6SM SCT025 BKN035
     FM011900 17014G20KT P6SM BKN040=



000
FTUS44 KLCH 312320
TAFAEX
TAF
KAEX 312320Z 0100/0124 20005KT P6SM SCT250
     FM010800 VRB03KT 3SM BR SCT005
      TEMPO 0109/0113 1/4SM FG VV001
     FM011500 18006KT P6SM SCT025 BKN035
     FM011900 18010G16KT P6SM BKN040=



000
FTUS44 KLCH 312320
TAFLCH
TAF
KLCH 312320Z 0100/0124 20007KT P6SM SCT250
     FM010500 VRB03KT 3SM BR SCT005
     FM010800 00000KT 1/4SM FG VV001
      TEMPO 0113/0115 3SM BR BKN005
     FM011500 17008KT P6SM SCT025 BKN035
     FM011900 18012G18KT P6SM BKN040=



000
FTUS44 KLCH 312320
TAFARA
TAF
KARA 312320Z 0100/0124 21008KT P6SM SCT250
     FM010400 VRB03KT 3SM BR SCT005
     FM010700 00000KT 1/4SM FG VV001
      TEMPO 0113/0115 3SM BR BKN005
     FM011500 19008KT P6SM SCT025 BKN035
     FM011900 19012G18KT P6SM BKN040=



000
FTUS44 KLCH 311720
TAFARA
TAF
KARA 311720Z 3118/0118 22013G21KT P6SM SCT025 BKN035
     FM010000 18007KT P6SM SCT050
     FM010400 VRB03KT 3SM BR SCT005
     FM010700 00000KT 1/4SM FG VV001
      TEMPO 0113/0115 3SM BR BKN005
     FM011500 18008KT P6SM SCT025 BKN035=



000
FTUS44 KLCH 311720
TAFLCH
TAF
KLCH 311720Z 3118/0118 22013G21KT P6SM SCT025 BKN035
     FM010000 18007KT P6SM SCT050
     FM010500 VRB03KT 3SM BR SCT005
     FM010800 00000KT 1/4SM FG VV001
      TEMPO 0113/0115 3SM BR BKN005
     FM011500 18008KT P6SM SCT025 BKN035=



000
FTUS44 KLCH 311720
TAFBPT
TAF
KBPT 311720Z 3118/0118 22014G22KT P6SM SCT025 BKN035
     FM010000 18008KT P6SM SCT050
     FM010500 VRB03KT 3SM BR SCT005
     FM010800 00000KT 1/4SM FG VV001
      TEMPO 0113/0115 3SM BR BKN005
     FM011500 18008KT P6SM SCT025 BKN035=



000
FTUS44 KLCH 311720
TAFLCH
TAF
KLCH 311720Z 3118/0118 22013G21KT P6SM SCT025 BKN035
     FM010000 18007KT P6SM SCT050
     FM010500 VRB03KT 3SM BR SCT005
     FM010800 00000KT 1/4SM FG VV001
      TEMPO 0113/0115 3SM BR BKN005
     FM011500 18008KT P6SM SCT025 BKN035=



000
FTUS44 KLCH 311720
TAFLFT
TAF
KLFT 311720Z 3118/0118 22012G20KT P6SM SCT025 BKN035
     FM010000 18007KT P6SM SCT050
     FM010500 VRB03KT 3SM BR SCT005
     FM010800 00000KT 1/4SM FG VV001
      TEMPO 0113/0115 3SM BR BKN005
     FM011500 18008KT P6SM SCT025 BKN035=



000
FTUS44 KLCH 311720
TAFAEX
TAF
KAEX 311720Z 3118/0118 22012G20KT P6SM SCT030
     FM010000 19005KT P6SM SCT050
     FM010800 VRB03KT 3SM BR SCT005
      TEMPO 0109/0113 1/4SM FG VV001
     FM011500 18006KT P6SM SCT025 BKN035=



000
FTUS44 KLCH 311720
TAFBPT
TAF
KBPT 311720Z 3118/0118 22014G22KT P6SM SCT025 BKN035
     FM010000 18008KT P6SM SCT050
     FM010500 VRB03KT 3SM BR SCT005
     FM010800 00000KT 1/4SM FG VV001
      TEMPO 0113/0115 3SM BR BKN005
     FM011500 18008KT P6SM SCT025 BKN035=



000
FTUS44 KLCH 311720
TAFLFT
TAF
KLFT 311720Z 3118/0118 22012G20KT P6SM SCT025 BKN035
     FM010000 18007KT P6SM SCT050
     FM010500 VRB03KT 3SM BR SCT005
     FM010800 00000KT 1/4SM FG VV001
      TEMPO 0113/0115 3SM BR BKN005
     FM011500 18008KT P6SM SCT025 BKN035=



000
FTUS44 KLCH 311720
TAFAEX
TAF
KAEX 311720Z 3118/0118 22012G20KT P6SM SCT030
     FM010000 19005KT P6SM SCT050
     FM010800 VRB03KT 3SM BR SCT005
      TEMPO 0109/0113 1/4SM FG VV001
     FM011500 18006KT P6SM SCT025 BKN035=



000
FTUS44 KLCH 311347 AAB
TAFLCH
TAF AMD
KLCH 311347Z 3114/0112 17003KT P6SM FEW025
     FM311600 20012G20KT P6SM SCT040
     FM010000 19006KT P6SM FEW020 SCT200
     FM010500 00000KT 3SM BR SCT015=



000
FTUS44 KLCH 311340 AAA
TAFARA
TAF AMD
KARA 311340Z 3114/0112 14003KT 1/4SM FG VV002
      TEMPO 3114/3115 3SM BR BKN005
     FM311500 22006KT P6SM BKN015
     FM311700 21012KT P6SM SCT035
     FM010000 20006KT P6SM FEW020 SCT200
     FM010500 00000KT 3SM BR SCT015=



000
FTUS44 KLCH 311340 AAA
TAFARA
TAF AMD
KARA 311340Z 3114/0112 14003KT 1/4SM FG VV002
      TEMPO 3114/3115 3SM BR BKN005
     FM311500 22006KT P6SM BKN015
     FM311700 21012KT P6SM SCT035
     FM010000 20006KT P6SM FEW020 SCT200
     FM010500 00000KT 3SM BR SCT015=



000
FTUS44 KLCH 311254 AAA
TAFLFT
TAF AMD
KLFT 311254Z 3113/0112 00000KT 6SM BR FEW012 BKN035
     FM311400 20005KT P6SM SCT015 SCT035
     FM311700 21010KT P6SM SCT035
     FM010000 20004KT P6SM FEW020 SCT250
     FM010700 00000KT 5SM BR SCT015=



000
FTUS44 KLCH 311254 AAA
TAFLFT
TAF AMD
KLFT 311254Z 3113/0112 00000KT 6SM BR FEW012 BKN035
     FM311400 20005KT P6SM SCT015 SCT035
     FM311700 21010KT P6SM SCT035
     FM010000 20004KT P6SM FEW020 SCT250
     FM010700 00000KT 5SM BR SCT015=



000
FTUS44 KLCH 311252 AAB
TAFLCH
TAF AMD
KLCH 311252Z 3113/0112 16003KT 5SM BR SCT015
     FM311400 20007KT P6SM SCT020
     FM311700 20012G18KT P6SM SCT040
     FM010000 19006KT P6SM FEW020 SCT200
     FM010500 00000KT 3SM BR SCT015=



000
FTUS44 KLCH 311252 AAB
TAFLCH
TAF AMD
KLCH 311252Z 3113/0112 16003KT 5SM BR SCT015
     FM311400 20007KT P6SM SCT020
     FM311700 20012G18KT P6SM SCT040
     FM010000 19006KT P6SM FEW020 SCT200
     FM010500 00000KT 3SM BR SCT015=



000
FTUS44 KLCH 311251 AAA
TAFBPT
TAF AMD
KBPT 311251Z 3113/0112 18004KT 5SM BR SCT018
     FM311400 21007KT P6SM SCT020
     FM311700 20012G18KT P6SM SCT040
     FM010000 18005KT P6SM FEW020 SCT200
     FM010500 17003KT 3SM BR SCT015=



000
FTUS44 KLCH 311251 AAA
TAFBPT
TAF AMD
KBPT 311251Z 3113/0112 18004KT 5SM BR SCT018
     FM311400 21007KT P6SM SCT020
     FM311700 20012G18KT P6SM SCT040
     FM010000 18005KT P6SM FEW020 SCT200
     FM010500 17003KT 3SM BR SCT015=



000
FTUS44 KLCH 311132
TAFLFT
TAF
KLFT 311132Z 3112/0112 00000KT 4SM BR SCT015
      TEMPO 3112/3113 1SM BR BKN015
     FM311400 22005KT P6SM BKN015
     FM311700 21010KT P6SM SCT035
     FM010000 20004KT P6SM FEW020 SCT250
     FM010700 00000KT 5SM BR SCT015=



000
FTUS44 KLCH 311132
TAFLCH
TAF
KLCH 311132Z 3112/0112 18003KT 1SM BR BKN025
      TEMPO 3112/3113 1/4SM FG BKN015
     FM311300 19003KT 4SM BR BKN015
     FM311400 22007KT P6SM BKN020
     FM311700 20012G18KT P6SM SCT040
     FM010000 19006KT P6SM FEW020 SCT200
     FM010500 00000KT 3SM BR SCT015=



000
FTUS44 KLCH 311132
TAFBPT
TAF
KBPT 311132Z 3112/0112 18004KT 4SM BR BKN015
      TEMPO 3112/3113 1/4SM FG VV005
     FM311400 21007KT P6SM BKN020
     FM311700 20012G18KT P6SM SCT040
     FM010000 18005KT P6SM FEW020 SCT200
     FM010500 17003KT 3SM BR SCT015=



000
FTUS44 KLCH 311132
TAFLCH
TAF
KLCH 311132Z 3112/0112 18003KT 1SM BR BKN025
      TEMPO 3112/3113 1/4SM FG BKN015
     FM311300 19003KT 4SM BR BKN015
     FM311400 22007KT P6SM BKN020
     FM311700 20012G18KT P6SM SCT040
     FM010000 19006KT P6SM FEW020 SCT200
     FM010500 00000KT 3SM BR SCT015=



000
FTUS44 KLCH 311132
TAFAEX
TAF
KAEX 311132Z 3112/0112 20005KT P6SM OVC010
     FM311400 23007KT P6SM BKN015
     FM311800 22011KT P6SM SCT040 SCT250
     FM010000 19005KT P6SM SCT250
     FM010800 17003KT 4SM BR SCT007=



000
FTUS44 KLCH 311132
TAFARA
TAF
KARA 311132Z 3112/0112 14003KT 1/4SM FG VV004
      TEMPO 3112/3113 1SM BR BKN005
     FM311300 VRB03KT 4SM BR BKN008
     FM311400 22006KT P6SM BKN015
     FM311700 21012KT P6SM SCT035
     FM010000 20006KT P6SM FEW020 SCT200
     FM010500 00000KT 3SM BR SCT015=



000
FTUS44 KLCH 311132
TAFAEX
TAF
KAEX 311132Z 3112/0112 20005KT P6SM OVC010
     FM311400 23007KT P6SM BKN015
     FM311800 22011KT P6SM SCT040 SCT250
     FM010000 19005KT P6SM SCT250
     FM010800 17003KT 4SM BR SCT007=



000
FTUS44 KLCH 311132
TAFLFT
TAF
KLFT 311132Z 3112/0112 00000KT 4SM BR SCT015
      TEMPO 3112/3113 1SM BR BKN015
     FM311400 22005KT P6SM BKN015
     FM311700 21010KT P6SM SCT035
     FM010000 20004KT P6SM FEW020 SCT250
     FM010700 00000KT 5SM BR SCT015=



000
FTUS44 KLCH 311132
TAFBPT
TAF
KBPT 311132Z 3112/0112 18004KT 4SM BR BKN015
      TEMPO 3112/3113 1/4SM FG VV005
     FM311400 21007KT P6SM BKN020
     FM311700 20012G18KT P6SM SCT040
     FM010000 18005KT P6SM FEW020 SCT200
     FM010500 17003KT 3SM BR SCT015=



000
FTUS44 KLCH 311132
TAFARA
TAF
KARA 311132Z 3112/0112 14003KT 1/4SM FG VV004
      TEMPO 3112/3113 1SM BR BKN005
     FM311300 VRB03KT 4SM BR BKN008
     FM311400 22006KT P6SM BKN015
     FM311700 21012KT P6SM SCT035
     FM010000 20006KT P6SM FEW020 SCT200
     FM010500 00000KT 3SM BR SCT015=



000
FTUS44 KLCH 311029 AAB
TAFARA
TAF AMD
KARA 311029Z 3110/0106 00000KT 1/4SM FG VV002
      TEMPO 3110/3113 1SM BR BKN005
     FM311300 VRB03KT 4SM BR BKN008
     FM311400 22006KT P6SM SCT015
     FM311800 22012G18KT P6SM SCT035
     FM010000 21006KT P6SM SCT200=



000
FTUS44 KLCH 311029 AAB
TAFARA
TAF AMD
KARA 311029Z 3110/0106 00000KT 1/4SM FG VV002
      TEMPO 3110/3113 1SM BR BKN005
     FM311300 VRB03KT 4SM BR BKN008
     FM311400 22006KT P6SM SCT015
     FM311800 22012G18KT P6SM SCT035
     FM010000 21006KT P6SM SCT200=



000
FTUS44 KLCH 310952 AAA
TAFAEX
TAF AMD
KAEX 310952Z 3110/0106 20005KT P6SM SCT008
      TEMPO 3110/3113 4SM BR BKN008
     FM311400 24006KT P6SM SCT025
     FM311800 22012G18KT P6SM SCT040
     FM010000 20006KT P6SM SCT200=



000
FTUS44 KLCH 310811 AAA
TAFBPT
TAF AMD
KBPT 310811Z 3108/0106 18003KT 4SM BR SKC
      TEMPO 3108/3112 1SM BR VV005
     FM311400 20005KT P6SM BKN015
     FM311600 20009KT P6SM BKN035
     FM311900 19012G18KT P6SM SCT040
     FM010000 18006KT P6SM SCT200=



000
FTUS44 KLCH 310811 AAA
TAFBPT
TAF AMD
KBPT 310811Z 3108/0106 18003KT 4SM BR SKC
      TEMPO 3108/3112 1SM BR VV005
     FM311400 20005KT P6SM BKN015
     FM311600 20009KT P6SM BKN035
     FM311900 19012G18KT P6SM SCT040
     FM010000 18006KT P6SM SCT200=



000
FTUS44 KLCH 310750 AAB
TAFLCH
TAF AMD
KLCH 310750Z 3108/0106 17003KT 2SM BR SKC
      TEMPO 3108/3112 1/2SM FG VV002
     FM311400 22005KT P6SM BKN015
     FM311600 21009KT P6SM BKN035
     FM311900 20012G18KT P6SM SCT040
     FM010000 19006KT P6SM SCT200=



000
FTUS44 KLCH 310622 AAA
TAFARA
TAF AMD
KARA 310622Z 3106/0106 00000KT 2SM BR SCT006
      TEMPO 3106/3109 1/4SM FG VV005
     FM310900 00000KT 1SM BR BKN004
      TEMPO 3109/3113 1/4SM FG VV001
     FM311400 22005KT 5SM BR BKN008
     FM311600 22010KT P6SM BKN015
     FM311800 22012G18KT P6SM SCT035
     FM010000 21006KT P6SM SCT200=



000
FTUS44 KLCH 310622 AAA
TAFARA
TAF AMD
KARA 310622Z 3106/0106 00000KT 2SM BR SCT006
      TEMPO 3106/3109 1/4SM FG VV005
     FM310900 00000KT 1SM BR BKN004
      TEMPO 3109/3113 1/4SM FG VV001
     FM311400 22005KT 5SM BR BKN008
     FM311600 22010KT P6SM BKN015
     FM311800 22012G18KT P6SM SCT035
     FM010000 21006KT P6SM SCT200=



000
FTUS44 KLCH 310520
TAFAEX
TAF
KAEX 310520Z 3106/0106 19007KT P6SM SCT250
     FM310900 20003KT 5SM BR SCT250
      TEMPO 3110/3113 2SM BR SCT005
     FM311400 24006KT P6SM SCT025
     FM311800 22012G18KT P6SM SCT040
     FM010000 20006KT P6SM SCT200=



000
FTUS44 KLCH 310520
TAFLFT
TAF
KLFT 310520Z 3106/0106 20003KT P6SM SCT250
     FM310800 00000KT 4SM BR FEW008
      TEMPO 3109/3113 1/2SM FG BKN002
     FM311400 23005KT P6SM BKN015
     FM311600 22009KT P6SM BKN035
     FM311900 21012G18KT P6SM SCT040
     FM010000 21006KT P6SM SCT200=



000
FTUS44 KLCH 310520
TAFLCH
TAF
KLCH 310520Z 3106/0106 18003KT P6SM SCT250
     FM310800 00000KT 4SM BR FEW008
      TEMPO 3109/3113 1/2SM FG BKN002
     FM311400 22005KT P6SM BKN015
     FM311600 21009KT P6SM BKN035
     FM311900 20012G18KT P6SM SCT040
     FM010000 19006KT P6SM SCT200=



000
FTUS44 KLCH 310520
TAFLFT
TAF
KLFT 310520Z 3106/0106 20003KT P6SM SCT250
     FM310800 00000KT 4SM BR FEW008
      TEMPO 3109/3113 1/2SM FG BKN002
     FM311400 23005KT P6SM BKN015
     FM311600 22009KT P6SM BKN035
     FM311900 21012G18KT P6SM SCT040
     FM010000 21006KT P6SM SCT200=



000
FTUS44 KLCH 310520
TAFARA
TAF
KARA 310520Z 3106/0106 20004KT P6SM SCT250
     FM310800 VRB03KT 3SM BR SCT006
     FM311000 00000KT 1SM BR BKN004
      TEMPO 3110/3113 1/4SM FG VV001
     FM311400 22005KT 5SM BR BKN008
     FM311600 22010KT P6SM BKN015
     FM311800 22012G18KT P6SM SCT035
     FM010000 21006KT P6SM SCT200=



000
FTUS44 KLCH 310520
TAFAEX
TAF
KAEX 310520Z 3106/0106 19007KT P6SM SCT250
     FM310900 20003KT 5SM BR SCT250
      TEMPO 3110/3113 2SM BR SCT005
     FM311400 24006KT P6SM SCT025
     FM311800 22012G18KT P6SM SCT040
     FM010000 20006KT P6SM SCT200=



000
FTUS44 KLCH 310520
TAFBPT
TAF
KBPT 310520Z 3106/0106 18005KT P6SM SCT250
     FM310800 18004KT 5SM BR FEW008
      TEMPO 3109/3113 1SM BR BKN008
     FM311400 20005KT P6SM BKN015
     FM311600 20009KT P6SM BKN035
     FM311900 19012G18KT P6SM SCT040
     FM010000 18006KT P6SM SCT200=



000
FTUS44 KLCH 310520
TAFLCH
TAF
KLCH 310520Z 3106/0106 18003KT P6SM SCT250
     FM310800 00000KT 4SM BR FEW008
      TEMPO 3109/3113 1/2SM FG BKN002
     FM311400 22005KT P6SM BKN015
     FM311600 21009KT P6SM BKN035
     FM311900 20012G18KT P6SM SCT040
     FM010000 19006KT P6SM SCT200=



000
FTUS44 KLCH 310520
TAFBPT
TAF
KBPT 310520Z 3106/0106 18005KT P6SM SCT250
     FM310800 18004KT 5SM BR FEW008
      TEMPO 3109/3113 1SM BR BKN008
     FM311400 20005KT P6SM BKN015
     FM311600 20009KT P6SM BKN035
     FM311900 19012G18KT P6SM SCT040
     FM010000 18006KT P6SM SCT200=



000
FTUS44 KLCH 310520
TAFARA
TAF
KARA 310520Z 3106/0106 20004KT P6SM SCT250
     FM310800 VRB03KT 3SM BR SCT006
     FM311000 00000KT 1SM BR BKN004
      TEMPO 3110/3113 1/4SM FG VV001
     FM311400 22005KT 5SM BR BKN008
     FM311600 22010KT P6SM BKN015
     FM311800 22012G18KT P6SM SCT035
     FM010000 21006KT P6SM SCT200=



000
FTUS44 KLCH 302332
TAFBPT
TAF
KBPT 302332Z 3100/3124 19008KT P6SM FEW040
     FM310600 18004KT 3SM BR FEW008
      TEMPO 3109/3113 1/2SM FG BKN002
     FM311500 20009KT P6SM SCT025 BKN035
     FM311800 19012G18KT P6SM BKN040=



000
FTUS44 KLCH 302332
TAFLCH
TAF
KLCH 302332Z 3100/3124 19008KT P6SM FEW045
     FM310600 18003KT 3SM BR FEW008
      TEMPO 3109/3113 1/2SM FG BKN002
     FM311500 21007KT P6SM SCT025 BKN035
     FM311900 20012G18KT P6SM BKN040=



000
FTUS44 KLCH 302332
TAFLFT
TAF
KLFT 302332Z 3100/3124 22006KT P6SM FEW050
     FM310600 00000KT 3SM BR FEW008
      TEMPO 3109/3113 1/2SM FG BKN002
     FM311500 22009KT P6SM SCT025 BKN035
     FM311900 21012G18KT P6SM BKN045=



000
FTUS44 KLCH 302332
TAFARA
TAF
KARA 302332Z 3100/3124 20008KT P6SM SCT050
     FM310600 18003KT 3SM BR FEW008
      TEMPO 3109/3113 1/2SM FG BKN002
     FM311500 22009KT P6SM SCT025 BKN035
     FM311900 21012G18KT P6SM BKN045=



000
FTUS44 KLCH 302332
TAFAEX
TAF
KAEX 302332Z 3100/3124 21004KT P6SM FEW050
     FM310600 VRB03KT 3SM BR FEW008
      TEMPO 3109/3113 1/2SM FG BKN002
     FM311500 23006KT P6SM SCT025 BKN035
     FM311900 22012G18KT P6SM BKN045=



000
FTUS44 KLCH 301904 AAA
TAFBPT
TAF AMD
KBPT 301904Z 3019/3118 20013G21KT P6SM BKN040
     FM310000 20008KT P6SM SCT050
     FM310600 18004KT 3SM BR FEW008
      TEMPO 3109/3113 1/2SM FG BKN002
     FM311500 20009KT P6SM SCT025 BKN035=



000
FTUS44 KLCH 301901 AAA
TAFLCH
TAF AMD
KLCH 301901Z 3019/3118 20012G20KT P6SM SCT035 BKN050
     FM310000 20008KT P6SM SCT050
     FM310600 18004KT 3SM BR FEW008
      TEMPO 3109/3113 1/2SM FG BKN002
     FM311500 20007KT P6SM SCT025 BKN035=



000
FTUS44 KLCH 301720
TAFLCH
TAF
KLCH 301720Z 3018/3118 22010KT P6SM SCT025 BKN035
     FM310000 20007KT P6SM SCT050
     FM310600 18004KT 3SM BR FEW008
      TEMPO 3109/3113 1/2SM FG BKN002
     FM311500 20007KT P6SM SCT025 BKN035=



000
FTUS44 KLCH 301720
TAFAEX
TAF
KAEX 301720Z 3018/3118 23006KT P6SM SCT050
     FM310000 20004KT P6SM FEW050
     FM310600 VRB03KT 3SM BR FEW008
      TEMPO 3109/3113 1/2SM FG BKN002
     FM311500 23006KT P6SM SCT025 BKN035=



000
FTUS44 KLCH 301720
TAFLCH
TAF
KLCH 301720Z 3018/3118 22010KT P6SM SCT025 BKN035
     FM310000 20007KT P6SM SCT050
     FM310600 18004KT 3SM BR FEW008
      TEMPO 3109/3113 1/2SM FG BKN002
     FM311500 20007KT P6SM SCT025 BKN035=



000
FTUS44 KLCH 301720
TAFLFT
TAF
KLFT 301720Z 3018/3118 22008KT P6SM SCT025 BKN035
     FM310000 20005KT P6SM SCT050
     FM310600 VRB03KT 3SM BR FEW008
      TEMPO 3109/3113 1/2SM FG BKN002
     FM311500 20009KT P6SM SCT025 BKN035=



000
FTUS44 KLCH 301720
TAFBPT
TAF
KBPT 301720Z 3018/3118 22011KT P6SM SCT025 BKN035
     FM310000 20008KT P6SM SCT050
     FM310600 18004KT 3SM BR FEW008
      TEMPO 3109/3113 1/2SM FG BKN002
     FM311500 20009KT P6SM SCT025 BKN035=



000
FTUS44 KLCH 301720
TAFARA
TAF
KARA 301720Z 3018/3118 22009KT P6SM SCT025 BKN035
     FM310000 20007KT P6SM SCT050
     FM310600 18003KT 3SM BR FEW008
      TEMPO 3109/3113 1/2SM FG BKN002
     FM311500 20009KT P6SM SCT025 BKN035=



000
FTUS44 KLCH 301720
TAFARA
TAF
KARA 301720Z 3018/3118 22009KT P6SM SCT025 BKN035
     FM310000 20007KT P6SM SCT050
     FM310600 18003KT 3SM BR FEW008
      TEMPO 3109/3113 1/2SM FG BKN002
     FM311500 20009KT P6SM SCT025 BKN035=



000
FTUS44 KLCH 301720
TAFBPT
TAF
KBPT 301720Z 3018/3118 22011KT P6SM SCT025 BKN035
     FM310000 20008KT P6SM SCT050
     FM310600 18004KT 3SM BR FEW008
      TEMPO 3109/3113 1/2SM FG BKN002
     FM311500 20009KT P6SM SCT025 BKN035=



000
FTUS44 KLCH 301720
TAFLFT
TAF
KLFT 301720Z 3018/3118 22008KT P6SM SCT025 BKN035
     FM310000 20005KT P6SM SCT050
     FM310600 VRB03KT 3SM BR FEW008
      TEMPO 3109/3113 1/2SM FG BKN002
     FM311500 20009KT P6SM SCT025 BKN035=



000
FTUS44 KLCH 301720
TAFAEX
TAF
KAEX 301720Z 3018/3118 23006KT P6SM SCT050
     FM310000 20004KT P6SM FEW050
     FM310600 VRB03KT 3SM BR FEW008
      TEMPO 3109/3113 1/2SM FG BKN002
     FM311500 23006KT P6SM SCT025 BKN035=



000
FTUS44 KLCH 301408 AAA
TAFAEX
TAF AMD
KAEX 301408Z 3014/3112 00000KT P6SM SKC
     FM301600 24006KT P6SM SCT035
     FM310000 20003KT P6SM FEW040 SCT250=



000
FTUS44 KLCH 301408 AAA
TAFAEX
TAF AMD
KAEX 301408Z 3014/3112 00000KT P6SM SKC
     FM301600 24006KT P6SM SCT035
     FM310000 20003KT P6SM FEW040 SCT250=



000
FTUS44 KLCH 301205 RRA
TAFLCH
TAF
KLCH 301205Z 3012/3112 VRB03KT P6SM SCT030
      TEMPO 3012/3014 4SM BR
     FM301400 22007KT P6SM SCT035
     FM310000 19003KT P6SM FEW025
     FM310500 00000KT 5SM BR SCT007=



000
FTUS44 KLCH 301205 RRA
TAFLCH
TAF
KLCH 301205Z 3012/3112 VRB03KT P6SM SCT030
      TEMPO 3012/3014 4SM BR
     FM301400 22007KT P6SM SCT035
     FM310000 19003KT P6SM FEW025
     FM310500 00000KT 5SM BR SCT007=



000
FTUS44 KLCH 301131
TAFLCH
TAF
KLCH 301131Z 3012/3112 VRB03KT P6SM SCT030
      TEMPO 3012/3014 4SM BR
     FM301400 22007KT P6SM SCT035
     FM310000 19003KT P6SM FEW025
     FM310500 00000KT 5SM BR SCT007=



000
FTUS44 KLCH 301131
TAFLFT
TAF
KLFT 301131Z 3012/3112 VRB03KT P6SM SCT035
      TEMPO 3012/3014 4SM BR
     FM301400 24006KT P6SM BKN035
     FM310000 19003KT P6SM FEW025
     FM310500 00000KT 5SM BR SCT007
      TEMPO 3108/3112 2SM BR BKN007=



000
FTUS44 KLCH 301131
TAFAEX
TAF
KAEX 301131Z 3012/3112 00000KT 2SM BR BKN015
      TEMPO 3012/3013 1/2SM FG VV005
     FM301300 VRB03KT 4SM BR BKN015
     FM301400 24005KT P6SM BKN025
     FM301700 24006KT P6SM BKN035
     FM310000 20003KT P6SM FEW040 SCT250=



000
FTUS44 KLCH 301131
TAFBPT
TAF
KBPT 301131Z 3012/3112 00000KT P6SM SCT030
      TEMPO 3012/3014 4SM BR BKN030
     FM301400 20008KT P6SM SCT035
     FM310000 18004KT P6SM FEW025
     FM310500 17003KT 5SM BR SCT007=



000
FTUS44 KLCH 301131
TAFARA
TAF
KARA 301131Z 3012/3112 VRB03KT 6SM BR SCT035
      TEMPO 3012/3014 2SM BR
     FM301400 22007KT P6SM BKN035
     FM310500 00000KT 4SM BR SCT007
      TEMPO 3108/3112 1SM BR BKN007=



000
FTUS44 KLCH 301131
TAFARA
TAF
KARA 301131Z 3012/3112 VRB03KT 6SM BR SCT035
      TEMPO 3012/3014 2SM BR
     FM301400 22007KT P6SM BKN035
     FM310500 00000KT 4SM BR SCT007
      TEMPO 3108/3112 1SM BR BKN007=



000
FTUS44 KLCH 301131
TAFLCH
TAF
KLCH 301131Z 3012/3112 VRB03KT P6SM SCT030
      TEMPO 3012/3014 4SM BR
     FM301400 22007KT P6SM SCT035
     FM310000 19003KT P6SM FEW025
     FM310500 00000KT 5SM BR SCT007=



000
FTUS44 KLCH 301131
TAFLFT
TAF
KLFT 301131Z 3012/3112 VRB03KT P6SM SCT035
      TEMPO 3012/3014 4SM BR
     FM301400 24006KT P6SM BKN035
     FM310000 19003KT P6SM FEW025
     FM310500 00000KT 5SM BR SCT007
      TEMPO 3108/3112 2SM BR BKN007=



000
FTUS44 KLCH 301131
TAFAEX
TAF
KAEX 301131Z 3012/3112 00000KT 2SM BR BKN015
      TEMPO 3012/3013 1/2SM FG VV005
     FM301300 VRB03KT 4SM BR BKN015
     FM301400 24005KT P6SM BKN025
     FM301700 24006KT P6SM BKN035
     FM310000 20003KT P6SM FEW040 SCT250=



000
FTUS44 KLCH 301131
TAFBPT
TAF
KBPT 301131Z 3012/3112 00000KT P6SM SCT030
      TEMPO 3012/3014 4SM BR BKN030
     FM301400 20008KT P6SM SCT035
     FM310000 18004KT P6SM FEW025
     FM310500 17003KT 5SM BR SCT007=



000
FTUS44 KLCH 300916 AAA
TAFARA
TAF AMD
KARA 300916Z 3009/3106 00000KT 5SM BR SCT035
      TEMPO 3009/3013 1SM BR BKN025
     FM301400 VRB05KT P6SM BKN025
     FM301700 23007KT P6SM BKN035
     FM302000 23009KT P6SM SCT035=



000
FTUS44 KLCH 300916 AAA
TAFARA
TAF AMD
KARA 300916Z 3009/3106 00000KT 5SM BR SCT035
      TEMPO 3009/3013 1SM BR BKN025
     FM301400 VRB05KT P6SM BKN025
     FM301700 23007KT P6SM BKN035
     FM302000 23009KT P6SM SCT035=



000
FTUS44 KLCH 300914 AAA
TAFLFT
TAF AMD
KLFT 300914Z 3009/3106 00000KT 4SM BR FEW040
      TEMPO 3009/3013 1SM BR BKN025
     FM301400 VRB05KT P6SM BKN025
     FM301700 23007KT P6SM BKN035
     FM302000 23009KT P6SM SCT035=



000
FTUS44 KLCH 300912 AAA
TAFAEX
TAF AMD
KAEX 300912Z 3009/3106 15003KT 6SM BR FEW035
      TEMPO 3010/3013 3SM BR BKN025
     FM301400 23005KT P6SM BKN025
     FM301700 24006KT P6SM BKN035
     FM302000 24007KT P6SM SCT035=



000
FTUS44 KLCH 300912 AAA
TAFAEX
TAF AMD
KAEX 300912Z 3009/3106 15003KT 6SM BR FEW035
      TEMPO 3010/3013 3SM BR BKN025
     FM301400 23005KT P6SM BKN025
     FM301700 24006KT P6SM BKN035
     FM302000 24007KT P6SM SCT035=



000
FTUS44 KLCH 300911 AAA
TAFBPT
TAF AMD
KBPT 300911Z 3009/3106 19006KT P6SM FEW025
      TEMPO 3010/3013 4SM BR BKN025
     FM301400 18005KT P6SM BKN025
     FM301700 20009KT P6SM BKN035
     FM302000 20010KT P6SM SCT035=



000
FTUS44 KLCH 300909 AAA
TAFLCH
TAF AMD
KLCH 300909Z 3009/3106 00000KT 4SM BR SCT030
      TEMPO 3009/3012 1SM BR BKN030
     FM301400 21005KT P6SM BKN025
     FM301700 22008KT P6SM BKN035
     FM302000 22009KT P6SM SCT035=



000
FTUS44 KLCH 300520
TAFLFT
TAF
KLFT 300520Z 3006/3106 19008KT P6SM SCT025
     FM300900 VRB05KT 4SM BR BKN025
     FM301400 VRB05KT P6SM BKN025
     FM301700 23007KT P6SM BKN035
     FM302000 23009KT P6SM SCT035=



000
FTUS44 KLCH 300520
TAFARA
TAF
KARA 300520Z 3006/3106 18008KT P6SM SCT025
     FM300900 VRB05KT 4SM BR BKN025
     FM301400 VRB05KT P6SM BKN025
     FM301700 23007KT P6SM BKN035
     FM302000 23009KT P6SM SCT035=



000
FTUS44 KLCH 300520
TAFLFT
TAF
KLFT 300520Z 3006/3106 19008KT P6SM SCT025
     FM300900 VRB05KT 4SM BR BKN025
     FM301400 VRB05KT P6SM BKN025
     FM301700 23007KT P6SM BKN035
     FM302000 23009KT P6SM SCT035=



000
FTUS44 KLCH 300520
TAFAEX
TAF
KAEX 300520Z 3006/3106 18009KT P6SM SCT025
     FM300900 16005KT 4SM BR BKN025
     FM301400 23005KT P6SM BKN025
     FM301700 24006KT P6SM BKN035
     FM302000 24007KT P6SM SCT035=



000
FTUS44 KLCH 300520
TAFLCH
TAF
KLCH 300520Z 3006/3106 19007KT P6SM SCT025
     FM300900 19005KT 4SM BR BKN025
     FM301400 21005KT P6SM BKN025
     FM301700 22008KT P6SM BKN035
     FM302000 22009KT P6SM SCT035=



000
FTUS44 KLCH 300520
TAFARA
TAF
KARA 300520Z 3006/3106 18008KT P6SM SCT025
     FM300900 VRB05KT 4SM BR BKN025
     FM301400 VRB05KT P6SM BKN025
     FM301700 23007KT P6SM BKN035
     FM302000 23009KT P6SM SCT035=



000
FTUS44 KLCH 300520
TAFBPT
TAF
KBPT 300520Z 3006/3106 18008KT P6SM SCT025
     FM300900 18005KT 4SM BR BKN025
     FM301400 18005KT P6SM BKN025
     FM301700 20009KT P6SM BKN035
     FM302000 20010KT P6SM SCT035=



000
FTUS44 KLCH 300520
TAFAEX
TAF
KAEX 300520Z 3006/3106 18009KT P6SM SCT025
     FM300900 16005KT 4SM BR BKN025
     FM301400 23005KT P6SM BKN025
     FM301700 24006KT P6SM BKN035
     FM302000 24007KT P6SM SCT035=



000
FTUS44 KLCH 300520
TAFBPT
TAF
KBPT 300520Z 3006/3106 18008KT P6SM SCT025
     FM300900 18005KT 4SM BR BKN025
     FM301400 18005KT P6SM BKN025
     FM301700 20009KT P6SM BKN035
     FM302000 20010KT P6SM SCT035=



000
FTUS44 KLCH 300520
TAFLCH
TAF
KLCH 300520Z 3006/3106 19007KT P6SM SCT025
     FM300900 19005KT 4SM BR BKN025
     FM301400 21005KT P6SM BKN025
     FM301700 22008KT P6SM BKN035
     FM302000 22009KT P6SM SCT035=



000
FTUS44 KLCH 292320
TAFLCH
TAF
KLCH 292320Z 3000/3024 21011G18KT P6SM FEW035
     FM300200 20008KT P6SM SKC
     FM300900 19005KT 4SM BR BKN025
     FM301400 21005KT P6SM BKN025
     FM301700 22008KT P6SM BKN035
     FM302000 22009KT P6SM SCT035=



000
FTUS44 KLCH 292320
TAFLFT
TAF
KLFT 292320Z 3000/3024 19011G17KT P6SM SCT035
     FM300200 19008KT P6SM SKC
     FM300900 VRB05KT 4SM BR BKN025
     FM301400 VRB05KT P6SM BKN025
     FM301700 23007KT P6SM BKN035
     FM302000 23009KT P6SM SCT035=



000
FTUS44 KLCH 292320
TAFAEX
TAF
KAEX 292320Z 3000/3024 19014G21KT P6SM SKC
     FM300200 18009KT P6SM SKC
     FM300900 16005KT 4SM BR BKN025
     FM301400 23005KT P6SM BKN025
     FM301700 24006KT P6SM BKN035
     FM302000 24007KT P6SM SCT035=



000
FTUS44 KLCH 292320
TAFARA
TAF
KARA 292320Z 3000/3024 19013G20KT P6SM SCT035
     FM300200 18008KT P6SM SKC
     FM300900 VRB05KT 4SM BR BKN025
     FM301400 VRB05KT P6SM BKN025
     FM301700 23007KT P6SM BKN035
     FM302000 23009KT P6SM SCT035=



000
FTUS44 KLCH 292320
TAFBPT
TAF
KBPT 292320Z 3000/3024 19012G18KT P6SM SCT035
     FM300200 18008KT P6SM SKC
     FM300900 18005KT 4SM BR BKN025
     FM301400 18005KT P6SM BKN025
     FM301700 20009KT P6SM BKN035
     FM302000 20010KT P6SM SCT035=



000
FTUS44 KLCH 292320
TAFAEX
TAF
KAEX 292320Z 3000/3024 19014G21KT P6SM SKC
     FM300200 18009KT P6SM SKC
     FM300900 16005KT 4SM BR BKN025
     FM301400 23005KT P6SM BKN025
     FM301700 24006KT P6SM BKN035
     FM302000 24007KT P6SM SCT035=



000
FTUS44 KLCH 292320
TAFLCH
TAF
KLCH 292320Z 3000/3024 21011G18KT P6SM FEW035
     FM300200 20008KT P6SM SKC
     FM300900 19005KT 4SM BR BKN025
     FM301400 21005KT P6SM BKN025
     FM301700 22008KT P6SM BKN035
     FM302000 22009KT P6SM SCT035=



000
FTUS44 KLCH 292320
TAFBPT
TAF
KBPT 292320Z 3000/3024 19012G18KT P6SM SCT035
     FM300200 18008KT P6SM SKC
     FM300900 18005KT 4SM BR BKN025
     FM301400 18005KT P6SM BKN025
     FM301700 20009KT P6SM BKN035
     FM302000 20010KT P6SM SCT035=



000
FTUS44 KLCH 292320
TAFLFT
TAF
KLFT 292320Z 3000/3024 19011G17KT P6SM SCT035
     FM300200 19008KT P6SM SKC
     FM300900 VRB05KT 4SM BR BKN025
     FM301400 VRB05KT P6SM BKN025
     FM301700 23007KT P6SM BKN035
     FM302000 23009KT P6SM SCT035=



000
FTUS44 KLCH 292320
TAFARA
TAF
KARA 292320Z 3000/3024 19013G20KT P6SM SCT035
     FM300200 18008KT P6SM SKC
     FM300900 VRB05KT 4SM BR BKN025
     FM301400 VRB05KT P6SM BKN025
     FM301700 23007KT P6SM BKN035
     FM302000 23009KT P6SM SCT035=



000
FTUS44 KLCH 291720
TAFBPT
TAF
KBPT 291720Z 2918/3018 19014G22KT P6SM SCT025
     FM300000 16008KT P6SM SCT025
     FM300600 17005KT 4SM BR BKN015
      TEMPO 3010/3014 1SM BR OVC007=



000
FTUS44 KLCH 291720
TAFARA
TAF
KARA 291720Z 2918/3018 19014G22KT P6SM SCT030
     FM300000 18006KT P6SM SCT250
     FM300800 18004KT 4SM BR SCT025
      TEMPO 3010/3014 1SM BR OVC010=



000
FTUS44 KLCH 291720
TAFBPT
TAF
KBPT 291720Z 2918/3018 19014G22KT P6SM SCT025
     FM300000 16008KT P6SM SCT025
     FM300600 17005KT 4SM BR BKN015
      TEMPO 3010/3014 1SM BR OVC007=



000
FTUS44 KLCH 291720
TAFAEX
TAF
KAEX 291720Z 2918/3018 18014G19KT P6SM SCT028
     FM300000 18006KT P6SM SCT025
     FM300900 17004KT 4SM BR SCT025
      TEMPO 3010/3014 1/2SM FG OVC003=



000
FTUS44 KLCH 291720
TAFLCH
TAF
KLCH 291720Z 2918/3018 19014G20KT P6SM FEW025
     FM300000 17006KT P6SM SCT025
     FM300800 16003KT 4SM BR SCT015
      TEMPO 3010/3014 1/2SM FG OVC005=



000
FTUS44 KLCH 291720
TAFARA
TAF
KARA 291720Z 2918/3018 19014G22KT P6SM SCT030
     FM300000 18006KT P6SM SCT250
     FM300800 18004KT 4SM BR SCT025
      TEMPO 3010/3014 1SM BR OVC010=



000
FTUS44 KLCH 291720
TAFAEX
TAF
KAEX 291720Z 2918/3018 18014G19KT P6SM SCT028
     FM300000 18006KT P6SM SCT025
     FM300900 17004KT 4SM BR SCT025
      TEMPO 3010/3014 1/2SM FG OVC003=



000
FTUS44 KLCH 291720
TAFLCH
TAF
KLCH 291720Z 2918/3018 19014G20KT P6SM FEW025
     FM300000 17006KT P6SM SCT025
     FM300800 16003KT 4SM BR SCT015
      TEMPO 3010/3014 1/2SM FG OVC005=



000
FTUS44 KLCH 291720
TAFLFT
TAF
KLFT 291720Z 2918/3018 19013G20KT P6SM SCT030
     FM300000 18006KT P6SM SCT250
     FM300900 17004KT 4SM BR SCT025
      TEMPO 3010/3014 1SM BR OVC007=



000
FTUS44 KLCH 291720
TAFLFT
TAF
KLFT 291720Z 2918/3018 19013G20KT P6SM SCT030
     FM300000 18006KT P6SM SCT250
     FM300900 17004KT 4SM BR SCT025
      TEMPO 3010/3014 1SM BR OVC007=



000
FTUS44 KLCH 291503 AAA
TAFAEX
TAF AMD
KAEX 291503Z 2915/3012 14009KT P6SM SCT250
      TEMPO 2915/2917 6SM BR OVC005
     FM291800 19014G19KT P6SM SCT250
     FM300000 18006KT P6SM SCT025
     FM300900 17004KT 4SM BR SCT025=



000
FTUS44 KLCH 291125
TAFLCH
TAF
KLCH 291125Z 2912/3012 15004KT P6SM SKC
      TEMPO 2912/2913 5SM BR
     FM291400 17007KT P6SM SCT250
     FM291700 19014G20KT P6SM SCT250
     FM300000 17006KT P6SM SCT025
     FM300800 16003KT 4SM BR SCT015=



000
FTUS44 KLCH 291125
TAFAEX
TAF
KAEX 291125Z 2912/3012 12006KT 5SM BR SCT005 BKN015
      TEMPO 2912/2914 BKN005
     FM291500 15009KT P6SM SCT250
     FM291800 19014G19KT P6SM SCT250
     FM300000 18006KT P6SM SCT025
     FM300900 17004KT 4SM BR SCT025=



000
FTUS44 KLCH 291125
TAFBPT
TAF
KBPT 291125Z 2912/3012 17006KT P6SM SKC
     FM291400 17010KT P6SM SCT250
     FM291700 18016G22KT P6SM SCT250
     FM300000 16008KT P6SM SCT025
     FM300600 17005KT 4SM BR BKN015=



000
FTUS44 KLCH 291125
TAFARA
TAF
KARA 291125Z 2912/3012 13005KT 5SM BR SKC
     FM291400 15008KT P6SM SCT250
     FM291700 19014G19KT P6SM SCT250
     FM300000 18006KT P6SM SCT250
     FM300800 18004KT 4SM BR SCT025=



000
FTUS44 KLCH 291125
TAFLFT
TAF
KLFT 291125Z 2912/3012 16004KT 5SM BR SKC
     FM291400 17007KT P6SM SCT250
     FM291700 19013G18KT P6SM SCT250
     FM300000 18006KT P6SM SCT250
     FM300900 17004KT 4SM BR SCT025=



000
FTUS44 KLCH 291125
TAFLCH
TAF
KLCH 291125Z 2912/3012 15004KT P6SM SKC
      TEMPO 2912/2913 5SM BR
     FM291400 17007KT P6SM SCT250
     FM291700 19014G20KT P6SM SCT250
     FM300000 17006KT P6SM SCT025
     FM300800 16003KT 4SM BR SCT015=



000
FTUS44 KLCH 291125
TAFLFT
TAF
KLFT 291125Z 2912/3012 16004KT 5SM BR SKC
     FM291400 17007KT P6SM SCT250
     FM291700 19013G18KT P6SM SCT250
     FM300000 18006KT P6SM SCT250
     FM300900 17004KT 4SM BR SCT025=



000
FTUS44 KLCH 291125
TAFAEX
TAF
KAEX 291125Z 2912/3012 12006KT 5SM BR SCT005 BKN015
      TEMPO 2912/2914 BKN005
     FM291500 15009KT P6SM SCT250
     FM291800 19014G19KT P6SM SCT250
     FM300000 18006KT P6SM SCT025
     FM300900 17004KT 4SM BR SCT025=



000
FTUS44 KLCH 291125
TAFARA
TAF
KARA 291125Z 2912/3012 13005KT 5SM BR SKC
     FM291400 15008KT P6SM SCT250
     FM291700 19014G19KT P6SM SCT250
     FM300000 18006KT P6SM SCT250
     FM300800 18004KT 4SM BR SCT025=



000
FTUS44 KLCH 291125
TAFBPT
TAF
KBPT 291125Z 2912/3012 17006KT P6SM SKC
     FM291400 17010KT P6SM SCT250
     FM291700 18016G22KT P6SM SCT250
     FM300000 16008KT P6SM SCT025
     FM300600 17005KT 4SM BR BKN015=



000
FTUS44 KLCH 290845 AAA
TAFAEX
TAF AMD
KAEX 290845Z 2909/3006 12005KT P6SM SCT007 BKN015
      TEMPO 2909/2913 5SM BR BKN007
     FM291400 14010KT P6SM SKC
     FM291700 18012G18KT P6SM SKC
     FM300000 18008KT P6SM SKC=



000
FTUS44 KLCH 290845 AAA
TAFAEX
TAF AMD
KAEX 290845Z 2909/3006 12005KT P6SM SCT007 BKN015
      TEMPO 2909/2913 5SM BR BKN007
     FM291400 14010KT P6SM SKC
     FM291700 18012G18KT P6SM SKC
     FM300000 18008KT P6SM SKC=



000
FTUS44 KLCH 290702 AAA
TAFBPT
TAF AMD
KBPT 290702Z 2907/3006 15005KT 5SM BR SKC
      TEMPO 2907/2911 1SM BR
     FM291400 17010KT P6SM SKC
     FM291700 18014G21KT P6SM SKC
     FM300000 18010KT P6SM SKC=



000
FTUS44 KLCH 290701 AAA
TAFLCH
TAF AMD
KLCH 290701Z 2907/3006 14004KT 5SM BR SKC
      TEMPO 2907/2911 1SM BR
     FM291400 17007KT P6SM SKC
     FM291700 18013G20KT P6SM SKC
     FM300000 18007KT P6SM SKC=



000
FTUS44 KLCH 290520
TAFLCH
TAF
KLCH 290520Z 2906/3006 18003KT P6SM SKC
      TEMPO 2910/2914 3SM BR
     FM291400 17007KT P6SM SKC
     FM291700 18013G20KT P6SM SKC
     FM300000 18007KT P6SM SKC=



000
FTUS44 KLCH 290520
TAFBPT
TAF
KBPT 290520Z 2906/3006 17005KT P6SM SKC
      TEMPO 2910/2914 3SM BR
     FM291400 17010KT P6SM SKC
     FM291700 18014G21KT P6SM SKC
     FM300000 18010KT P6SM SKC=



000
FTUS44 KLCH 290520
TAFLCH
TAF
KLCH 290520Z 2906/3006 18003KT P6SM SKC
      TEMPO 2910/2914 3SM BR
     FM291400 17007KT P6SM SKC
     FM291700 18013G20KT P6SM SKC
     FM300000 18007KT P6SM SKC=



000
FTUS44 KLCH 290520
TAFARA
TAF
KARA 290520Z 2906/3006 16004KT P6SM SKC
      TEMPO 2910/2914 4SM BR
     FM291400 18008KT P6SM SKC
     FM291700 19012G18KT P6SM SKC
     FM300000 18006KT P6SM SKC=



000
FTUS44 KLCH 290520
TAFAEX
TAF
KAEX 290520Z 2906/3006 12005KT P6SM SKC
      TEMPO 2910/2914 5SM BR
     FM291400 14010KT P6SM SKC
     FM291700 18012G18KT P6SM SKC
     FM300000 18008KT P6SM SKC=



000
FTUS44 KLCH 290520
TAFLFT
TAF
KLFT 290520Z 2906/3006 16004KT P6SM SKC
      TEMPO 2910/2914 4SM BR
     FM291400 18008KT P6SM SKC
     FM291700 19012G18KT P6SM SKC
     FM300000 18006KT P6SM SKC=



000
FTUS44 KLCH 290520
TAFBPT
TAF
KBPT 290520Z 2906/3006 17005KT P6SM SKC
      TEMPO 2910/2914 3SM BR
     FM291400 17010KT P6SM SKC
     FM291700 18014G21KT P6SM SKC
     FM300000 18010KT P6SM SKC=



000
FTUS44 KLCH 290520
TAFARA
TAF
KARA 290520Z 2906/3006 16004KT P6SM SKC
      TEMPO 2910/2914 4SM BR
     FM291400 18008KT P6SM SKC
     FM291700 19012G18KT P6SM SKC
     FM300000 18006KT P6SM SKC=



000
FTUS44 KLCH 290520
TAFAEX
TAF
KAEX 290520Z 2906/3006 12005KT P6SM SKC
      TEMPO 2910/2914 5SM BR
     FM291400 14010KT P6SM SKC
     FM291700 18012G18KT P6SM SKC
     FM300000 18008KT P6SM SKC=



000
FTUS44 KLCH 290520
TAFLFT
TAF
KLFT 290520Z 2906/3006 16004KT P6SM SKC
      TEMPO 2910/2914 4SM BR
     FM291400 18008KT P6SM SKC
     FM291700 19012G18KT P6SM SKC
     FM300000 18006KT P6SM SKC=



    US Dept of Commerce
    National Oceanic and Atmospheric Administration
    National Weather Service
    1325 East West Highway
    Silver Spring, MD 20910
    Page Author: NWS Internet Services Team
Disclaimer
Information Quality
Credits
Glossary
Privacy Policy
Freedom of Information Act (FOIA)
About Us
Career Opportunities